Iron Mountain, MI (49801)

6:42 AM CST on December 10, 2016 (GMT -0600)
East Kingsford, Aurora Bridge | | Change Station

Elev 1106 ft 45.79 °N, 88.08 °W | Updated 13 seconds ago

Clear
Clear
7.9 °F
Feels Like 8 °F
N
2.0
Wind Variable Wind from WNW
Gusts 2.5 mph

Today
High -- | Low -- °F
--% Chance of Precip.
Yesterday
High -- | Low -- °F
Precip. -- in
Pressure 30.44 in
Visibility 10.0 miles
Clouds Clear
Windchill 8 °F
Dew Point -12 °F
Humidity 40%
Rainfall 0.00 in
Snow Depth Not available.
7:23 AM 4:07 PM
Waxing Gibbous, 83% visible
METAR KIMT 101154Z AUTO 27008KT 10SM CLR M13/M20 A3035 RMK AO2 SLP306 T11331200 11100 21133 53001
Pressure 30.44 in
Visibility 10.0 miles
Clouds Clear
Windchill 8 °F
Dew Point -12 °F
Humidity 40%
Rainfall 0.00 in
Snow Depth Not available.
7:23 AM 4:07 PM
Waxing Gibbous, 83% visible
METAR KIMT 101154Z AUTO 27008KT 10SM CLR M13/M20 A3035 RMK AO2 SLP306 T11331200 11100 21133 53001

10-Day Weather Forecast

Almanac

Astronomy

Dec. 10, 2016 Rise Set
Actual Time
Civil Twilight
Nautical Twilight
Astronomical Twilight
Moon
Length of Visible Light
Length of Day
Tomorrow will be .
, % of the Moon is Illuminated

Today's Extremes

State Highs State Lows

Community

WunderPhotos

Upload Photos

1,956,540 photos uploaded!

WunderBlog® & News

Nearby

Air Quality

  Air Quality AQ Index Pollutant
Not available.

Snow Depth

Station Depth Elevation

Earthquake Activity

City Distance Mag. Time & Date
Minimum magnitude displayed is 2.5.

Coastal Water Temperatures

Place Temperature

Stations

Nearby Weather Stations

Station Location Temp. Windchill Dew Point Humidity Wind Precip. Elev Updated Type
                   

Watches & Warnings

There are currently no watches in effect.